createdAt,value
2022-08-14T11:25:07.666Z,315.00
2022-08-14T11:26:07.658Z,315.00
2022-08-14T11:27:07.846Z,315.00
2022-08-14T11:28:11.085Z,315.00
2022-08-14T11:29:07.762Z,315.00
2022-08-14T11:30:51.225Z,315.00
2022-08-14T11:31:07.712Z,315.00
2022-08-14T11:32:07.828Z,315.00
2022-08-14T11:33:09.116Z,315.00
2022-08-14T11:34:10.475Z,315.00
2022-08-14T11:35:07.716Z,315.00
2022-08-14T11:36:17.267Z,315.00
2022-08-14T11:37:18.983Z,319.98
2022-08-14T11:38:07.687Z,45.00
2022-08-14T11:39:10.675Z,45.00
2022-08-14T11:40:07.792Z,0.03
2022-08-14T11:41:07.736Z,0.00
2022-08-14T11:42:57.191Z,0.00
2022-08-14T11:43:08.423Z,0.00
2022-08-14T11:44:13.260Z,0.00
2022-08-14T11:45:11.014Z,0.00
2022-08-14T11:46:07.728Z,0.00
2022-08-14T11:47:07.743Z,0.00
2022-08-14T11:48:10.809Z,0.00
2022-08-14T11:49:07.882Z,0.00
2022-08-14T11:50:07.767Z,0.00
2022-08-14T11:51:07.778Z,0.00
2022-08-14T11:52:07.823Z,1.08
2022-08-14T11:53:08.725Z,0.00
2022-08-14T11:54:08.506Z,0.00
2022-08-14T11:55:07.831Z,0.00
2022-08-14T11:56:07.773Z,0.00
2022-08-14T11:57:07.788Z,0.00
2022-08-14T11:58:07.868Z,0.00
2022-08-14T11:59:10.206Z,0.00
2022-08-14T12:00:08.510Z,0.00
2022-08-14T12:01:07.807Z,0.00
2022-08-14T12:02:07.852Z,0.00
2022-08-14T12:03:08.068Z,0.00
2022-08-14T12:04:07.962Z,0.00
2022-08-14T12:05:09.347Z,0.00
2022-08-14T12:06:09.463Z,0.00
2022-08-14T12:07:07.815Z,0.00
2022-08-14T12:08:11.899Z,0.00
2022-08-14T12:09:08.696Z,0.00
2022-08-14T12:10:26.639Z,0.00
2022-08-14T12:11:07.858Z,313.46
2022-08-14T12:12:07.816Z,270.00
2022-08-14T12:13:07.829Z,270.00
2022-08-14T12:14:07.864Z,270.00
2022-08-14T12:15:07.837Z,270.00
2022-08-14T12:16:11.347Z,270.00
2022-08-14T12:17:12.767Z,270.00
2022-08-14T12:18:11.326Z,270.00
2022-08-14T12:19:07.864Z,270.00
2022-08-14T12:20:09.325Z,270.00
2022-08-14T12:21:07.923Z,270.00
2022-08-14T12:22:07.858Z,270.00
2022-08-14T12:23:07.838Z,270.00
2022-08-14T12:24:08.577Z,270.00
2022-08-14T12:25:10.940Z,270.00
2022-08-14T12:26:31.547Z,270.00
2022-08-14T12:27:07.873Z,270.00
2022-08-14T12:28:07.889Z,270.00
2022-08-14T12:29:07.908Z,270.00
2022-08-14T12:30:07.890Z,270.00
2022-08-14T12:31:07.897Z,270.00
2022-08-14T12:32:12.678Z,269.10
2022-08-14T12:33:07.893Z,225.00
2022-08-14T12:34:10.088Z,225.00
2022-08-14T12:35:07.898Z,225.00
2022-08-14T12:36:07.957Z,225.00
2022-08-14T12:37:07.918Z,225.00
2022-08-14T12:38:07.915Z,225.00
2022-08-14T12:39:07.984Z,225.00
2022-08-14T12:40:07.970Z,225.00
2022-08-14T12:41:08.084Z,225.00
2022-08-14T12:42:07.956Z,225.00
2022-08-14T12:43:07.988Z,225.00
2022-08-14T12:44:08.477Z,225.00
2022-08-14T12:45:07.940Z,225.00
2022-08-14T12:46:07.951Z,225.00
2022-08-14T12:47:07.959Z,225.00
2022-08-14T12:48:21.516Z,225.00
2022-08-14T12:49:08.032Z,225.00
2022-08-14T12:50:07.993Z,225.00
2022-08-14T12:51:07.952Z,225.00
2022-08-14T12:52:17.047Z,225.00
2022-08-14T12:53:17.415Z,225.00
2022-08-14T12:54:07.993Z,225.00
2022-08-14T12:55:07.965Z,225.00
2022-08-14T12:56:21.836Z,225.00
2022-08-14T12:57:08.079Z,225.00
2022-08-14T12:58:29.408Z,225.00
2022-08-14T12:59:08.411Z,225.00
2022-08-14T13:00:22.700Z,225.00
2022-08-14T13:01:16.978Z,225.00
2022-08-14T13:02:11.537Z,225.00
2022-08-14T13:03:08.056Z,225.00
2022-08-14T13:04:08.062Z,225.00
2022-08-14T13:05:08.003Z,225.00
2022-08-14T13:06:08.039Z,225.00
2022-08-14T13:07:08.002Z,225.00
2022-08-14T13:08:22.519Z,225.00
2022-08-14T13:09:11.200Z,225.00
2022-08-14T13:10:46.145Z,225.00
2022-08-14T13:11:08.008Z,225.00
2022-08-14T13:12:32.269Z,225.00
2022-08-14T13:13:15.716Z,225.00
2022-08-14T13:14:08.030Z,225.00
2022-08-14T13:15:08.899Z,225.00
2022-08-14T13:16:20.460Z,225.00
2022-08-14T13:17:08.050Z,225.00
2022-08-14T13:18:08.021Z,225.00
2022-08-14T13:19:10.964Z,225.00
2022-08-14T13:20:10.225Z,225.00
2022-08-14T13:21:08.127Z,225.00
2022-08-14T13:22:10.158Z,225.00
2022-08-14T13:23:08.125Z,225.00
2022-08-14T13:24:08.174Z,225.00
2022-08-14T13:25:08.161Z,225.00
2022-08-14T13:26:08.164Z,225.00
2022-08-14T13:27:09.945Z,225.00
2022-08-14T13:28:10.885Z,225.00
2022-08-14T13:29:08.614Z,225.00
2022-08-14T13:30:10.233Z,225.00
2022-08-14T13:31:11.056Z,225.00
2022-08-14T13:32:08.201Z,225.00
2022-08-14T13:33:08.202Z,225.00
2022-08-14T13:34:08.193Z,225.00
2022-08-14T13:35:12.253Z,225.00
2022-08-14T13:36:08.209Z,225.00
2022-08-14T13:37:08.253Z,225.00
2022-08-14T13:38:08.250Z,225.00
2022-08-14T13:39:08.576Z,225.00
2022-08-14T13:40:08.247Z,225.00
2022-08-14T13:41:08.354Z,225.00
2022-08-14T13:42:10.940Z,247.10
2022-08-14T13:43:08.377Z,0.00
2022-08-14T13:44:13.870Z,0.00
2022-08-14T13:45:08.391Z,0.00
2022-08-14T13:46:08.438Z,0.00
2022-08-14T13:47:08.852Z,0.00
2022-08-14T13:48:08.481Z,0.00
2022-08-14T13:49:08.438Z,0.00
2022-08-14T13:50:08.405Z,0.00
2022-08-14T13:51:10.845Z,0.00
2022-08-14T13:52:14.693Z,0.00
2022-08-14T13:53:08.423Z,269.38
2022-08-14T13:54:10.221Z,225.00
2022-08-14T13:55:08.420Z,225.00
2022-08-14T13:56:14.765Z,225.00
2022-08-14T13:57:08.410Z,225.00
2022-08-14T13:58:08.455Z,45.00
2022-08-14T13:59:08.536Z,45.00
2022-08-14T14:00:08.414Z,45.00
2022-08-14T14:01:08.415Z,45.00
2022-08-14T14:02:08.576Z,45.00
2022-08-14T14:03:08.732Z,45.00
2022-08-14T14:04:08.440Z,45.00
2022-08-14T14:05:08.432Z,45.00
2022-08-14T14:06:08.427Z,45.00
2022-08-14T14:07:08.490Z,56.20
2022-08-14T14:08:18.547Z,90.00
2022-08-14T14:09:08.679Z,90.00
2022-08-14T14:10:08.448Z,90.00
2022-08-14T14:11:08.481Z,70.03
2022-08-14T14:12:38.321Z,0.00
2022-08-14T14:13:08.477Z,0.00
2022-08-14T14:14:08.489Z,0.00
2022-08-14T14:15:09.601Z,0.00
2022-08-14T14:16:08.555Z,0.00
2022-08-14T14:17:08.545Z,0.00
2022-08-14T14:18:29.778Z,0.00
2022-08-14T14:19:08.913Z,0.00
2022-08-14T14:20:08.493Z,0.00
2022-08-14T14:21:09.136Z,0.00
2022-08-14T14:22:09.824Z,0.00
2022-08-14T14:23:08.650Z,0.00
2022-08-14T14:24:08.542Z,0.00
2022-08-14T14:25:08.497Z,0.00
2022-08-14T14:26:13.797Z,0.00
2022-08-14T14:27:39.017Z,0.00
2022-08-14T14:28:08.511Z,0.00
2022-08-14T14:29:08.578Z,0.00
2022-08-14T14:30:46.611Z,0.00
2022-08-14T14:31:08.537Z,0.00
2022-08-14T14:32:08.515Z,0.00
2022-08-14T14:33:23.090Z,0.00
2022-08-14T14:34:28.930Z,0.00
2022-08-14T14:35:08.517Z,0.00
2022-08-14T14:36:08.527Z,0.00
2022-08-14T14:37:08.530Z,0.00
2022-08-14T14:38:08.529Z,0.00
2022-08-14T14:39:08.550Z,0.00
2022-08-14T14:40:53.787Z,0.00
2022-08-14T14:41:08.729Z,0.00
2022-08-14T14:42:09.385Z,0.00
2022-08-14T14:43:08.515Z,0.00
2022-08-14T14:44:09.156Z,0.00
2022-08-14T14:45:08.942Z,0.00
2022-08-14T14:46:09.231Z,0.00
2022-08-14T14:47:08.546Z,0.00
2022-08-14T14:48:08.561Z,0.00
2022-08-14T14:49:08.591Z,0.00
2022-08-14T14:50:08.712Z,0.00
2022-08-14T14:51:08.570Z,0.00
2022-08-14T14:52:08.591Z,0.00
2022-08-14T14:53:12.966Z,0.00
2022-08-14T14:54:08.885Z,0.00
2022-08-14T14:55:08.607Z,0.00
2022-08-14T14:56:49.493Z,316.96
2022-08-14T14:57:09.317Z,225.00
2022-08-14T14:58:08.605Z,225.00
2022-08-14T14:59:08.805Z,225.00
2022-08-14T15:00:12.426Z,225.00
2022-08-14T15:01:10.376Z,225.00
2022-08-14T15:02:09.175Z,225.00
2022-08-14T15:03:08.620Z,225.00
2022-08-14T15:04:19.874Z,225.00
2022-08-14T15:05:08.598Z,225.00
2022-08-14T15:06:08.600Z,225.00
2022-08-14T15:07:08.610Z,225.00
2022-08-14T15:08:08.612Z,225.00
2022-08-14T15:09:08.961Z,225.00
2022-08-14T15:10:27.682Z,225.00
2022-08-14T15:11:13.723Z,225.00
2022-08-14T15:12:27.942Z,225.00
2022-08-14T15:13:08.791Z,45.00
2022-08-14T15:14:55.276Z,45.00
2022-08-14T15:15:09.419Z,45.00
2022-08-14T15:16:08.681Z,45.00
2022-08-14T15:17:08.633Z,45.00
2022-08-14T15:18:35.913Z,45.00
2022-08-14T15:19:08.646Z,45.00
2022-08-14T15:20:08.647Z,45.00
2022-08-14T15:21:08.667Z,45.00
2022-08-14T15:22:10.387Z,45.00
2022-08-14T15:23:12.628Z,45.00
2022-08-14T15:24:08.832Z,45.00
2022-08-14T15:25:08.657Z,45.00
2022-08-14T15:26:08.686Z,45.00
2022-08-14T15:27:08.645Z,45.00
2022-08-14T15:28:10.832Z,45.00
2022-08-14T15:29:08.684Z,45.00
2022-08-14T15:30:08.748Z,45.00
2022-08-14T15:31:08.664Z,45.00
2022-08-14T15:32:08.808Z,45.00
2022-08-14T15:33:08.676Z,45.00
2022-08-14T15:34:44.603Z,45.00
2022-08-14T15:35:08.680Z,45.00
2022-08-14T15:36:08.774Z,45.00
2022-08-14T15:37:12.664Z,45.00
2022-08-14T15:38:08.734Z,45.00
2022-08-14T15:39:09.179Z,45.00
2022-08-14T15:40:09.851Z,45.00
2022-08-14T15:41:08.790Z,45.00
2022-08-14T15:42:14.766Z,45.00
2022-08-14T15:43:09.052Z,45.00
2022-08-14T15:44:18.831Z,45.00
2022-08-14T15:45:08.717Z,45.00
2022-08-14T15:46:08.709Z,45.00
2022-08-14T15:47:08.714Z,45.00
2022-08-14T15:48:13.994Z,45.00
2022-08-14T15:49:08.793Z,45.00
2022-08-14T15:50:08.768Z,45.00
2022-08-14T15:51:08.787Z,45.00
2022-08-14T15:52:08.744Z,45.00
2022-08-14T15:53:08.735Z,45.00
2022-08-14T15:54:11.475Z,45.00
2022-08-14T15:55:08.756Z,45.00
2022-08-14T15:56:08.764Z,45.00
2022-08-14T15:57:08.740Z,45.00
2022-08-14T15:58:13.051Z,45.00
2022-08-14T15:59:09.176Z,45.00
2022-08-14T16:00:11.540Z,45.00
2022-08-14T16:01:08.769Z,45.00
2022-08-14T16:02:08.794Z,45.00
2022-08-14T16:03:08.902Z,45.00
2022-08-14T16:04:08.794Z,45.00
2022-08-14T16:05:08.941Z,45.00
2022-08-14T16:06:10.713Z,45.00
2022-08-14T16:07:09.042Z,45.00
2022-08-14T16:08:28.869Z,45.00
2022-08-14T16:09:11.286Z,45.00
2022-08-14T16:10:28.857Z,45.00
2022-08-14T16:11:08.818Z,45.00
2022-08-14T16:12:08.796Z,45.00
2022-08-14T16:13:08.792Z,45.00
2022-08-14T16:14:08.822Z,45.00
2022-08-14T16:15:09.746Z,45.00
2022-08-14T16:16:49.715Z,45.00
2022-08-14T16:17:08.838Z,45.00
2022-08-14T16:18:08.880Z,45.00
2022-08-14T16:19:10.313Z,45.00
2022-08-14T16:20:08.897Z,45.00
2022-08-14T16:21:08.816Z,45.00
2022-08-14T16:22:58.251Z,45.00
2022-08-14T16:23:11.875Z,45.00
2022-08-14T16:24:27.556Z,45.00
2022-08-14T16:25:08.976Z,45.00
2022-08-14T16:26:08.977Z,45.00
2022-08-14T16:27:09.004Z,45.00
2022-08-14T16:28:08.978Z,45.00
2022-08-14T16:29:09.340Z,45.00
2022-08-14T16:30:10.792Z,45.00
2022-08-14T16:31:09.889Z,45.00
2022-08-14T16:32:32.070Z,45.00
